sensor_id;sensor_type;location;lat;lon;timestamp;pressure;altitude;pressure_sealevel;temperature;humidity
250;BME280;109;19.806;-70.704;2023-06-24T00:00:37;101512.81;;;29.37;59.55
250;BME280;109;19.806;-70.704;2023-06-24T00:03:03;101516.91;;;29.28;59.88
250;BME280;109;19.806;-70.704;2023-06-24T00:05:33;101523.97;;;29.31;59.94
250;BME280;109;19.806;-70.704;2023-06-24T00:07:59;101527.03;;;29.39;59.91
250;BME280;109;19.806;-70.704;2023-06-24T00:10:28;101527.34;;;29.35;60.02
250;BME280;109;19.806;-70.704;2023-06-24T00:12:55;101534.16;;;29.40;59.76
250;BME280;109;19.806;-70.704;2023-06-24T00:15:22;101540.25;;;29.44;59.95
250;BME280;109;19.806;-70.704;2023-06-24T00:17:48;101543.78;;;29.30;59.86
250;BME280;109;19.806;-70.704;2023-06-24T00:20:16;101555.00;;;29.38;60.10
250;BME280;109;19.806;-70.704;2023-06-24T00:22:43;101549.84;;;29.49;59.71
250;BME280;109;19.806;-70.704;2023-06-24T00:25:14;101552.81;;;29.59;58.95
250;BME280;109;19.806;-70.704;2023-06-24T00:27:41;101558.25;;;29.43;59.16
250;BME280;109;19.806;-70.704;2023-06-24T00:30:09;101553.50;;;29.48;59.03
250;BME280;109;19.806;-70.704;2023-06-24T00:32:36;101563.66;;;29.43;59.17
250;BME280;109;19.806;-70.704;2023-06-24T00:35:03;101566.88;;;29.50;59.16
250;BME280;109;19.806;-70.704;2023-06-24T00:37:30;101568.34;;;29.70;58.97
250;BME280;109;19.806;-70.704;2023-06-24T00:39:56;101563.63;;;29.59;58.92
250;BME280;109;19.806;-70.704;2023-06-24T00:42:23;101566.50;;;29.56;58.90
250;BME280;109;19.806;-70.704;2023-06-24T00:44:49;101558.22;;;29.59;59.22
250;BME280;109;19.806;-70.704;2023-06-24T00:47:16;101553.69;;;29.59;59.09
250;BME280;109;19.806;-70.704;2023-06-24T00:49:42;101551.56;;;29.64;58.88
250;BME280;109;19.806;-70.704;2023-06-24T00:52:12;101551.09;;;29.58;58.64
250;BME280;109;19.806;-70.704;2023-06-24T00:54:49;101553.28;;;29.65;58.77
250;BME280;109;19.806;-70.704;2023-06-24T00:57:15;101566.22;;;29.60;58.63
250;BME280;109;19.806;-70.704;2023-06-24T00:59:50;101569.00;;;29.59;58.51
250;BME280;109;19.806;-70.704;2023-06-24T01:02:20;101571.44;;;29.63;58.57
250;BME280;109;19.806;-70.704;2023-06-24T01:04:55;101574.31;;;29.60;58.50
250;BME280;109;19.806;-70.704;2023-06-24T01:07:23;101563.97;;;29.53;58.82
250;BME280;109;19.806;-70.704;2023-06-24T01:09:56;101569.97;;;29.72;58.72
250;BME280;109;19.806;-70.704;2023-06-24T01:12:22;101572.47;;;29.61;58.54
250;BME280;109;19.806;-70.704;2023-06-24T01:14:56;101580.75;;;29.58;58.55
250;BME280;109;19.806;-70.704;2023-06-24T01:17:37;101590.59;;;29.59;58.52
250;BME280;109;19.806;-70.704;2023-06-24T01:20:20;101585.88;;;29.62;58.66
250;BME280;109;19.806;-70.704;2023-06-24T01:31:45;101591.25;;;29.48;58.57
250;BME280;109;19.806;-70.704;2023-06-24T01:40:15;101597.84;;;29.43;59.33
250;BME280;109;19.806;-70.704;2023-06-24T01:42:50;101599.25;;;29.50;59.05
250;BME280;109;19.806;-70.704;2023-06-24T01:45:24;101593.28;;;29.59;58.99
250;BME280;109;19.806;-70.704;2023-06-24T01:48:13;101596.38;;;29.67;58.60
250;BME280;109;19.806;-70.704;2023-06-24T01:51:01;101597.06;;;29.41;58.73
250;BME280;109;19.806;-70.704;2023-06-24T01:53:37;101592.41;;;29.28;58.88
250;BME280;109;19.806;-70.704;2023-06-24T01:56:15;101601.97;;;29.50;58.70
250;BME280;109;19.806;-70.704;2023-06-24T01:58:45;101603.16;;;29.44;58.88
250;BME280;109;19.806;-70.704;2023-06-24T02:01:21;101598.28;;;29.51;58.43
250;BME280;109;19.806;-70.704;2023-06-24T02:03:49;101596.19;;;29.40;58.61
250;BME280;109;19.806;-70.704;2023-06-24T02:06:24;101599.50;;;29.45;58.32
250;BME280;109;19.806;-70.704;2023-06-24T02:08:53;101606.72;;;29.45;58.09
250;BME280;109;19.806;-70.704;2023-06-24T02:11:28;101601.88;;;29.51;57.40
250;BME280;109;19.806;-70.704;2023-06-24T02:13:57;101607.13;;;29.53;58.11
250;BME280;109;19.806;-70.704;2023-06-24T02:16:33;101604.25;;;29.56;57.26
250;BME280;109;19.806;-70.704;2023-06-24T02:19:02;101610.16;;;29.62;57.63
250;BME280;109;19.806;-70.704;2023-06-24T02:21:39;101610.91;;;29.64;57.39
250;BME280;109;19.806;-70.704;2023-06-24T02:24:21;101622.56;;;29.51;57.55
250;BME280;109;19.806;-70.704;2023-06-24T02:26:57;101624.19;;;29.53;57.31
250;BME280;109;19.806;-70.704;2023-06-24T02:29:26;101626.13;;;29.51;57.39
250;BME280;109;19.806;-70.704;2023-06-24T02:32:01;101623.13;;;29.56;57.34
250;BME280;109;19.806;-70.704;2023-06-24T02:34:28;101622.19;;;29.57;57.44
250;BME280;109;19.806;-70.704;2023-06-24T02:37:02;101618.91;;;29.66;56.94
250;BME280;109;19.806;-70.704;2023-06-24T02:39:48;101625.75;;;29.57;57.24
250;BME280;109;19.806;-70.704;2023-06-24T02:42:22;101626.13;;;29.65;56.93
250;BME280;109;19.806;-70.704;2023-06-24T02:44:50;101627.50;;;29.58;57.16
250;BME280;109;19.806;-70.704;2023-06-24T02:47:24;101630.97;;;29.45;57.36
250;BME280;109;19.806;-70.704;2023-06-24T02:49:51;101627.56;;;29.57;56.87
250;BME280;109;19.806;-70.704;2023-06-24T02:52:26;101627.66;;;29.55;56.96
250;BME280;109;19.806;-70.704;2023-06-24T02:54:59;101618.53;;;29.58;57.12
250;BME280;109;19.806;-70.704;2023-06-24T02:57:38;101622.28;;;29.40;56.96
250;BME280;109;19.806;-70.704;2023-06-24T03:00:41;101633.84;;;29.42;57.23
250;BME280;109;19.806;-70.704;2023-06-24T03:03:29;101627.19;;;29.33;57.47
250;BME280;109;19.806;-70.704;2023-06-24T03:06:07;101632.66;;;29.02;58.04
250;BME280;109;19.806;-70.704;2023-06-24T03:08:45;101632.38;;;29.22;58.20
250;BME280;109;19.806;-70.704;2023-06-24T03:11:13;101633.63;;;29.30;57.64
250;BME280;109;19.806;-70.704;2023-06-24T03:13:47;101624.78;;;29.28;57.83
250;BME280;109;19.806;-70.704;2023-06-24T03:16:18;101626.41;;;29.31;57.63
250;BME280;109;19.806;-70.704;2023-06-24T03:18:58;101627.03;;;29.36;57.45
250;BME280;109;19.806;-70.704;2023-06-24T03:21:40;101616.41;;;29.33;57.54
250;BME280;109;19.806;-70.704;2023-06-24T03:24:15;101623.72;;;29.47;57.52
250;BME280;109;19.806;-70.704;2023-06-24T03:26:45;101618.34;;;29.31;57.71
250;BME280;109;19.806;-70.704;2023-06-24T03:29:19;101614.53;;;29.19;58.43
250;BME280;109;19.806;-70.704;2023-06-24T03:32:08;101613.69;;;28.87;58.46
250;BME280;109;19.806;-70.704;2023-06-24T03:34:42;101616.59;;;28.53;58.45
250;BME280;109;19.806;-70.704;2023-06-24T03:37:10;101613.06;;;28.35;58.35
250;BME280;109;19.806;-70.704;2023-06-24T03:39:43;101601.88;;;28.27;58.26
250;BME280;109;19.806;-70.704;2023-06-24T03:42:23;101595.97;;;28.20;57.56
250;BME280;109;19.806;-70.704;2023-06-24T03:44:49;101595.06;;;28.04;56.84
250;BME280;109;19.806;-70.704;2023-06-24T03:47:23;101594.78;;;28.09;57.37
250;BME280;109;19.806;-70.704;2023-06-24T03:49:49;101591.00;;;28.13;57.71
250;BME280;109;19.806;-70.704;2023-06-24T03:52:22;101590.91;;;28.14;57.38
250;BME280;109;19.806;-70.704;2023-06-24T03:54:49;101589.97;;;28.15;57.58
250;BME280;109;19.806;-70.704;2023-06-24T03:57:22;101595.78;;;28.08;58.20
250;BME280;109;19.806;-70.704;2023-06-24T03:59:48;101586.47;;;28.13;58.56
250;BME280;109;19.806;-70.704;2023-06-24T04:02:22;101584.34;;;28.20;58.27
250;BME280;109;19.806;-70.704;2023-06-24T04:04:48;101579.53;;;28.25;58.18
250;BME280;109;19.806;-70.704;2023-06-24T04:07:25;101580.94;;;28.32;58.14
250;BME280;109;19.806;-70.704;2023-06-24T04:10:06;101573.22;;;28.42;58.02
250;BME280;109;19.806;-70.704;2023-06-24T04:12:44;101565.22;;;28.40;57.84
250;BME280;109;19.806;-70.704;2023-06-24T04:15:11;101550.38;;;28.49;58.03
250;BME280;109;19.806;-70.704;2023-06-24T04:17:45;101556.28;;;28.40;58.30
250;BME280;109;19.806;-70.704;2023-06-24T04:20:19;101556.63;;;28.34;58.26
250;BME280;109;19.806;-70.704;2023-06-24T04:22:53;101543.44;;;28.29;58.43
250;BME280;109;19.806;-70.704;2023-06-24T04:25:19;101535.59;;;28.24;58.30
250;BME280;109;19.806;-70.704;2023-06-24T04:27:53;101530.13;;;28.42;58.56
250;BME280;109;19.806;-70.704;2023-06-24T04:30:19;101526.50;;;28.43;58.54
250;BME280;109;19.806;-70.704;2023-06-24T04:32:53;101521.28;;;28.40;58.65
250;BME280;109;19.806;-70.704;2023-06-24T04:35:19;101521.84;;;28.46;58.48
250;BME280;109;19.806;-70.704;2023-06-24T04:37:53;101521.88;;;28.45;58.89
250;BME280;109;19.806;-70.704;2023-06-24T04:40:33;101515.75;;;28.58;58.38
250;BME280;109;19.806;-70.704;2023-06-24T04:42:59;101516.22;;;28.65;58.46
250;BME280;109;19.806;-70.704;2023-06-24T04:45:31;101508.94;;;28.67;58.47
250;BME280;109;19.806;-70.704;2023-06-24T04:47:58;101518.16;;;28.63;58.37
250;BME280;109;19.806;-70.704;2023-06-24T04:50:31;101510.25;;;28.60;58.35
250;BME280;109;19.806;-70.704;2023-06-24T04:52:58;101502.22;;;28.74;58.59
250;BME280;109;19.806;-70.704;2023-06-24T04:55:30;101501.72;;;28.68;58.30
250;BME280;109;19.806;-70.704;2023-06-24T04:57:57;101503.28;;;28.72;58.41
250;BME280;109;19.806;-70.704;2023-06-24T05:00:30;101497.66;;;28.45;58.96
250;BME280;109;19.806;-70.704;2023-06-24T05:02:56;101487.84;;;28.44;59.01
250;BME280;109;19.806;-70.704;2023-06-24T05:05:28;101490.41;;;28.47;58.92
250;BME280;109;19.806;-70.704;2023-06-24T05:07:55;101483.94;;;28.49;59.00
250;BME280;109;19.806;-70.704;2023-06-24T05:10:27;101484.63;;;28.53;58.89
250;BME280;109;19.806;-70.704;2023-06-24T05:12:54;101476.28;;;28.57;58.71
250;BME280;109;19.806;-70.704;2023-06-24T05:15:28;101480.72;;;28.43;59.02
250;BME280;109;19.806;-70.704;2023-06-24T05:17:56;101465.50;;;28.42;58.94
250;BME280;109;19.806;-70.704;2023-06-24T05:20:36;101473.50;;;28.43;58.99
250;BME280;109;19.806;-70.704;2023-06-24T05:23:08;101466.91;;;28.49;58.78
250;BME280;109;19.806;-70.704;2023-06-24T05:25:35;101464.81;;;28.54;58.80
250;BME280;109;19.806;-70.704;2023-06-24T05:28:08;101462.91;;;28.56;58.78
250;BME280;109;19.806;-70.704;2023-06-24T05:30:34;101461.69;;;28.46;58.57
250;BME280;109;19.806;-70.704;2023-06-24T05:33:07;101461.66;;;28.47;58.80
250;BME280;109;19.806;-70.704;2023-06-24T05:35:33;101461.19;;;28.55;58.77
250;BME280;109;19.806;-70.704;2023-06-24T05:38:07;101454.56;;;28.45;58.72
250;BME280;109;19.806;-70.704;2023-06-24T05:40:46;101458.31;;;28.42;58.74
250;BME280;109;19.806;-70.704;2023-06-24T05:43:13;101452.41;;;28.51;58.67
250;BME280;109;19.806;-70.704;2023-06-24T05:45:46;101451.19;;;28.57;58.54
250;BME280;109;19.806;-70.704;2023-06-24T05:48:12;101452.31;;;28.53;58.60
250;BME280;109;19.806;-70.704;2023-06-24T05:50:47;101444.31;;;28.51;58.53
250;BME280;109;19.806;-70.704;2023-06-24T05:53:13;101449.72;;;28.51;58.60
250;BME280;109;19.806;-70.704;2023-06-24T05:55:46;101451.19;;;28.41;58.98
250;BME280;109;19.806;-70.704;2023-06-24T05:58:12;101443.63;;;28.48;58.71
250;BME280;109;19.806;-70.704;2023-06-24T06:00:46;101440.84;;;28.49;58.27
250;BME280;109;19.806;-70.704;2023-06-24T06:03:12;101436.34;;;28.50;58.49
250;BME280;109;19.806;-70.704;2023-06-24T06:05:45;101438.38;;;28.46;58.55
250;BME280;109;19.806;-70.704;2023-06-24T06:08:11;101436.41;;;28.48;58.64
250;BME280;109;19.806;-70.704;2023-06-24T06:10:43;101444.31;;;28.51;58.37
250;BME280;109;19.806;-70.704;2023-06-24T06:13:17;101441.28;;;28.57;58.29
250;BME280;109;19.806;-70.704;2023-06-24T06:15:51;101448.13;;;28.63;58.02
250;BME280;109;19.806;-70.704;2023-06-24T06:18:18;101444.47;;;28.64;58.04
250;BME280;109;19.806;-70.704;2023-06-24T06:20:51;101441.00;;;28.62;58.14
250;BME280;109;19.806;-70.704;2023-06-24T06:23:17;101446.97;;;28.67;57.89
250;BME280;109;19.806;-70.704;2023-06-24T06:25:51;101450.16;;;28.59;58.30
250;BME280;109;19.806;-70.704;2023-06-24T06:28:17;101447.31;;;28.47;58.29
250;BME280;109;19.806;-70.704;2023-06-24T06:30:51;101448.06;;;28.49;59.31
250;BME280;109;19.806;-70.704;2023-06-24T06:33:17;101458.72;;;28.35;59.64
250;BME280;109;19.806;-70.704;2023-06-24T06:35:58;101452.94;;;28.26;59.79
250;BME280;109;19.806;-70.704;2023-06-24T06:38:38;101450.97;;;28.14;60.03
250;BME280;109;19.806;-70.704;2023-06-24T06:41:04;101457.75;;;28.21;59.54
250;BME280;109;19.806;-70.704;2023-06-24T06:43:37;101456.19;;;28.17;59.57
250;BME280;109;19.806;-70.704;2023-06-24T06:46:04;101454.84;;;28.09;59.83
250;BME280;109;19.806;-70.704;2023-06-24T06:48:37;101450.97;;;28.14;60.26
250;BME280;109;19.806;-70.704;2023-06-24T06:51:03;101456.09;;;28.19;60.24
250;BME280;109;19.806;-70.704;2023-06-24T06:53:37;101450.00;;;28.15;60.53
250;BME280;109;19.806;-70.704;2023-06-24T06:56:03;101457.22;;;28.15;60.65
250;BME280;109;19.806;-70.704;2023-06-24T06:58:37;101460.00;;;28.13;59.92
250;BME280;109;19.806;-70.704;2023-06-24T07:01:04;101451.31;;;28.08;59.92
250;BME280;109;19.806;-70.704;2023-06-24T07:03:38;101455.72;;;28.09;60.70
250;BME280;109;19.806;-70.704;2023-06-24T07:06:05;101443.13;;;28.25;60.56
250;BME280;109;19.806;-70.704;2023-06-24T07:08:38;101439.88;;;28.35;60.13
250;BME280;109;19.806;-70.704;2023-06-24T07:11:04;101442.19;;;28.26;60.41
250;BME280;109;19.806;-70.704;2023-06-24T07:13:38;101436.22;;;28.21;60.08
250;BME280;109;19.806;-70.704;2023-06-24T07:16:04;101443.81;;;28.29;60.32
250;BME280;109;19.806;-70.704;2023-06-24T07:18:38;101448.97;;;28.34;60.16
250;BME280;109;19.806;-70.704;2023-06-24T07:21:04;101444.53;;;28.33;60.34
250;BME280;109;19.806;-70.704;2023-06-24T07:23:37;101436.84;;;28.41;59.54
250;BME280;109;19.806;-70.704;2023-06-24T07:26:03;101449.72;;;28.36;59.64
250;BME280;109;19.806;-70.704;2023-06-24T07:28:36;101445.88;;;28.40;59.56
250;BME280;109;19.806;-70.704;2023-06-24T07:31:02;101443.47;;;28.51;59.52
250;BME280;109;19.806;-70.704;2023-06-24T07:33:35;101435.19;;;28.54;59.59
250;BME280;109;19.806;-70.704;2023-06-24T07:36:08;101442.84;;;28.46;60.02
250;BME280;109;19.806;-70.704;2023-06-24T07:38:42;101433.56;;;28.51;59.90
250;BME280;109;19.806;-70.704;2023-06-24T07:41:22;101441.06;;;28.31;60.00
250;BME280;109;19.806;-70.704;2023-06-24T07:43:48;101429.91;;;28.37;59.92
250;BME280;109;19.806;-70.704;2023-06-24T07:46:21;101431.47;;;28.41;59.76
250;BME280;109;19.806;-70.704;2023-06-24T07:48:47;101435.06;;;28.25;60.08
250;BME280;109;19.806;-70.704;2023-06-24T07:51:20;101426.63;;;28.32;60.24
250;BME280;109;19.806;-70.704;2023-06-24T07:53:46;101426.63;;;28.32;60.12
250;BME280;109;19.806;-70.704;2023-06-24T07:56:19;101439.06;;;28.34;60.28
250;BME280;109;19.806;-70.704;2023-06-24T07:58:45;101440.16;;;28.46;59.71
250;BME280;109;19.806;-70.704;2023-06-24T08:01:19;101443.75;;;28.15;59.66
250;BME280;109;19.806;-70.704;2023-06-24T08:03:45;101443.31;;;28.22;60.66
250;BME280;109;19.806;-70.704;2023-06-24T08:06:18;101448.88;;;28.19;61.56
250;BME280;109;19.806;-70.704;2023-06-24T08:08:44;101453.25;;;28.06;61.26
250;BME280;109;19.806;-70.704;2023-06-24T08:11:19;101444.97;;;27.94;60.65
250;BME280;109;19.806;-70.704;2023-06-24T08:13:47;101443.94;;;27.96;60.88
250;BME280;109;19.806;-70.704;2023-06-24T08:16:21;101451.31;;;28.08;59.88
250;BME280;109;19.806;-70.704;2023-06-24T08:18:48;101446.19;;;28.04;59.76
250;BME280;109;19.806;-70.704;2023-06-24T08:21:22;101446.44;;;27.99;59.82
250;BME280;109;19.806;-70.704;2023-06-24T08:23:48;101443.94;;;27.96;60.03
250;BME280;109;19.806;-70.704;2023-06-24T08:26:23;101445.16;;;28.06;59.62
250;BME280;109;19.806;-70.704;2023-06-24T08:28:49;101446.44;;;28.15;59.60
250;BME280;109;19.806;-70.704;2023-06-24T08:31:23;101443.84;;;27.98;59.74
250;BME280;109;19.806;-70.704;2023-06-24T08:34:01;101432.47;;;27.92;59.90
250;BME280;109;19.806;-70.704;2023-06-24T08:36:35;101440.13;;;28.00;59.79
250;BME280;109;19.806;-70.704;2023-06-24T08:39:21;101440.56;;;28.08;59.12
250;BME280;109;19.806;-70.704;2023-06-24T08:41:55;101442.09;;;27.97;59.28
250;BME280;109;19.806;-70.704;2023-06-24T08:44:21;101436.22;;;28.06;59.07
250;BME280;109;19.806;-70.704;2023-06-24T08:46:55;101437.75;;;28.10;59.02
250;BME280;109;19.806;-70.704;2023-06-24T08:52:11;101438.22;;;28.02;58.83
250;BME280;109;19.806;-70.704;2023-06-24T08:54:51;101438.03;;;28.05;58.52
250;BME280;109;19.806;-70.704;2023-06-24T08:57:25;101435.34;;;28.05;58.65
250;BME280;109;19.806;-70.704;2023-06-24T08:59:53;101443.69;;;28.01;58.47
250;BME280;109;19.806;-70.704;2023-06-24T09:02:27;101447.31;;;28.00;58.37
250;BME280;109;19.806;-70.704;2023-06-24T09:04:53;101435.94;;;28.10;58.34
250;BME280;109;19.806;-70.704;2023-06-24T09:07:28;101442.28;;;28.09;58.26
250;BME280;109;19.806;-70.704;2023-06-24T09:09:54;101438.53;;;28.12;58.14
250;BME280;109;19.806;-70.704;2023-06-24T09:12:35;101433.94;;;27.98;58.17
250;BME280;109;19.806;-70.704;2023-06-24T09:15:14;101430.13;;;28.02;58.23
250;BME280;109;19.806;-70.704;2023-06-24T09:17:48;101436.38;;;28.18;57.87
250;BME280;109;19.806;-70.704;2023-06-24T09:20:14;101434.88;;;28.29;57.78
250;BME280;109;19.806;-70.704;2023-06-24T09:22:53;101425.75;;;28.31;57.93
250;BME280;109;19.806;-70.704;2023-06-24T09:25:30;101431.63;;;28.38;57.62
250;BME280;109;19.806;-70.704;2023-06-24T09:28:03;101426.16;;;28.39;57.54
250;BME280;109;19.806;-70.704;2023-06-24T09:30:36;101429.91;;;28.37;57.64
250;BME280;109;19.806;-70.704;2023-06-24T09:33:02;101431.25;;;28.30;57.57
250;BME280;109;19.806;-70.704;2023-06-24T09:35:43;101430.09;;;28.34;57.32
250;BME280;109;19.806;-70.704;2023-06-24T09:38:35;101420.22;;;28.34;57.38
250;BME280;109;19.806;-70.704;2023-06-24T09:41:15;101418.28;;;28.36;57.69
250;BME280;109;19.806;-70.704;2023-06-24T09:43:42;101422.13;;;28.32;57.64
250;BME280;109;19.806;-70.704;2023-06-24T09:46:20;101420.22;;;28.34;57.44
250;BME280;109;19.806;-70.704;2023-06-24T09:48:47;101417.53;;;28.34;57.49
250;BME280;109;19.806;-70.704;2023-06-24T09:51:20;101417.22;;;28.39;57.29
250;BME280;109;19.806;-70.704;2023-06-24T09:53:49;101429.81;;;28.38;57.43
250;BME280;109;19.806;-70.704;2023-06-24T09:56:26;101436.34;;;28.50;57.14
250;BME280;109;19.806;-70.704;2023-06-24T09:58:53;101434.25;;;28.55;56.78
250;BME280;109;19.806;-70.704;2023-06-24T10:01:26;101430.00;;;28.35;57.04
250;BME280;109;19.806;-70.704;2023-06-24T10:03:53;101426.78;;;28.60;56.99
250;BME280;109;19.806;-70.704;2023-06-24T10:06:28;101431.16;;;28.61;57.12
250;BME280;109;19.806;-70.704;2023-06-24T10:08:54;101432.91;;;28.62;57.17
250;BME280;109;19.806;-70.704;2023-06-24T10:11:28;101433.19;;;28.57;56.78
250;BME280;109;19.806;-70.704;2023-06-24T10:13:54;101441.94;;;28.61;56.73
250;BME280;109;19.806;-70.704;2023-06-24T10:16:28;101439.50;;;28.72;56.62
250;BME280;109;19.806;-70.704;2023-06-24T10:19:00;101457.69;;;28.53;57.45
250;BME280;109;19.806;-70.704;2023-06-24T10:24:32;101459.44;;;28.22;58.83
250;BME280;109;19.806;-70.704;2023-06-24T10:27:08;101454.34;;;28.02;59.05
250;BME280;109;19.806;-70.704;2023-06-24T10:29:47;101463.38;;;28.01;59.32
250;BME280;109;19.806;-70.704;2023-06-24T10:32:22;101454.78;;;27.95;59.45
250;BME280;109;19.806;-70.704;2023-06-24T10:35:27;101458.16;;;27.82;59.39
250;BME280;109;19.806;-70.704;2023-06-24T10:38:15;101458.28;;;27.64;59.59
250;BME280;109;19.806;-70.704;2023-06-24T10:40:49;101466.47;;;27.78;59.78
250;BME280;109;19.806;-70.704;2023-06-24T10:43:25;101465.94;;;27.71;59.84
250;BME280;109;19.806;-70.704;2023-06-24T10:45:59;101468.06;;;27.98;59.94
250;BME280;109;19.806;-70.704;2023-06-24T10:48:25;101477.63;;;28.03;59.95
250;BME280;109;19.806;-70.704;2023-06-24T10:50:52;101477.75;;;27.84;59.09
250;BME280;109;19.806;-70.704;2023-06-24T10:53:19;101481.91;;;27.74;58.94
250;BME280;109;19.806;-70.704;2023-06-24T10:55:46;101495.91;;;27.81;58.66
250;BME280;109;19.806;-70.704;2023-06-24T10:58:15;101510.03;;;27.69;58.65
250;BME280;109;19.806;-70.704;2023-06-24T11:00:42;101512.88;;;27.66;58.48
250;BME280;109;19.806;-70.704;2023-06-24T11:03:14;101506.84;;;27.61;57.77
250;BME280;109;19.806;-70.704;2023-06-24T11:05:42;101512.31;;;27.59;57.70
250;BME280;109;19.806;-70.704;2023-06-24T11:08:09;101513.06;;;27.78;57.40
250;BME280;109;19.806;-70.704;2023-06-24T11:10:44;101513.16;;;27.92;57.11
250;BME280;109;19.806;-70.704;2023-06-24T11:13:12;101514.84;;;28.11;57.27
250;BME280;109;19.806;-70.704;2023-06-24T11:15:39;101525.13;;;28.20;57.37
250;BME280;109;19.806;-70.704;2023-06-24T11:18:10;101522.34;;;28.21;57.19
250;BME280;109;19.806;-70.704;2023-06-24T11:20:40;101513.72;;;28.31;57.07
250;BME280;109;19.806;-70.704;2023-06-24T11:23:07;101522.94;;;28.26;56.71
250;BME280;109;19.806;-70.704;2023-06-24T11:25:41;101517.53;;;28.42;57.05
250;BME280;109;19.806;-70.704;2023-06-24T11:28:17;101523.81;;;28.43;56.69
250;BME280;109;19.806;-70.704;2023-06-24T11:30:43;101529.56;;;28.21;56.45
250;BME280;109;19.806;-70.704;2023-06-24T11:33:10;101523.34;;;28.35;56.60
250;BME280;109;19.806;-70.704;2023-06-24T11:35:36;101527.53;;;28.40;56.53
250;BME280;109;19.806;-70.704;2023-06-24T11:38:03;101532.50;;;28.48;56.91
250;BME280;109;19.806;-70.704;2023-06-24T11:40:31;101535.19;;;28.48;56.93
250;BME280;109;19.806;-70.704;2023-06-24T11:43:00;101542.31;;;28.49;56.14
250;BME280;109;19.806;-70.704;2023-06-24T11:45:28;101542.81;;;28.71;55.82
250;BME280;109;19.806;-70.704;2023-06-24T11:48:01;101537.63;;;29.28;55.79
250;BME280;109;19.806;-70.704;2023-06-24T11:50:30;101546.84;;;29.10;55.59
250;BME280;109;19.806;-70.704;2023-06-24T11:52:57;101537.72;;;29.41;54.79
250;BME280;109;19.806;-70.704;2023-06-24T11:55:25;101542.69;;;29.91;53.87
250;BME280;109;19.806;-70.704;2023-06-24T11:58:03;101537.88;;;30.24;53.96
250;BME280;109;19.806;-70.704;2023-06-24T12:00:35;101543.13;;;30.54;53.88
250;BME280;109;19.806;-70.704;2023-06-24T12:03:05;101543.28;;;30.65;52.50
250;BME280;109;19.806;-70.704;2023-06-24T12:05:34;101548.94;;;30.88;52.00
250;BME280;109;19.806;-70.704;2023-06-24T12:08:04;101545.03;;;31.06;51.94
250;BME280;109;19.806;-70.704;2023-06-24T12:10:32;101544.25;;;30.64;51.89
250;BME280;109;19.806;-70.704;2023-06-24T12:13:00;101543.31;;;31.05;52.38
250;BME280;109;19.806;-70.704;2023-06-24T12:15:27;101546.81;;;31.32;51.89
250;BME280;109;19.806;-70.704;2023-06-24T12:17:54;101552.00;;;31.61;51.42
250;BME280;109;19.806;-70.704;2023-06-24T12:20:21;101549.00;;;31.65;50.87
250;BME280;109;19.806;-70.704;2023-06-24T12:22:48;101555.28;;;31.53;50.69
250;BME280;109;19.806;-70.704;2023-06-24T12:25:16;101544.44;;;31.79;50.56
250;BME280;109;19.806;-70.704;2023-06-24T12:27:45;101548.59;;;31.46;50.13
250;BME280;109;19.806;-70.704;2023-06-24T12:30:12;101540.13;;;31.38;50.99
250;BME280;109;19.806;-70.704;2023-06-24T12:32:39;101544.44;;;31.66;51.13
250;BME280;109;19.806;-70.704;2023-06-24T12:35:06;101547.38;;;31.63;50.72
250;BME280;109;19.806;-70.704;2023-06-24T12:37:35;101548.88;;;31.92;50.96
250;BME280;109;19.806;-70.704;2023-06-24T12:40:03;101542.94;;;31.49;50.19
250;BME280;109;19.806;-70.704;2023-06-24T12:42:30;101543.47;;;31.67;50.97
250;BME280;109;19.806;-70.704;2023-06-24T12:44:56;101550.72;;;31.66;51.05
250;BME280;109;19.806;-70.704;2023-06-24T12:47:23;101548.50;;;31.21;51.05
250;BME280;109;19.806;-70.704;2023-06-24T12:49:49;101550.78;;;31.27;51.32
250;BME280;109;19.806;-70.704;2023-06-24T12:52:16;101551.88;;;31.24;51.48
250;BME280;109;19.806;-70.704;2023-06-24T12:54:42;101546.19;;;31.54;51.41
250;BME280;109;19.806;-70.704;2023-06-24T12:57:09;101550.94;;;31.63;51.25
250;BME280;109;19.806;-70.704;2023-06-24T12:59:36;101555.25;;;32.04;50.65
250;BME280;109;19.806;-70.704;2023-06-24T13:02:02;101558.72;;;31.81;49.94
250;BME280;109;19.806;-70.704;2023-06-24T13:04:29;101561.09;;;31.72;51.02
250;BME280;109;19.806;-70.704;2023-06-24T13:06:55;101559.72;;;31.54;51.23
250;BME280;109;19.806;-70.704;2023-06-24T13:09:22;101560.03;;;30.70;52.13
250;BME280;109;19.806;-70.704;2023-06-24T13:11:48;101553.91;;;30.81;52.38
250;BME280;109;19.806;-70.704;2023-06-24T13:14:15;101559.09;;;31.11;52.56
250;BME280;109;19.806;-70.704;2023-06-24T13:16:42;101565.75;;;30.66;52.61
250;BME280;109;19.806;-70.704;2023-06-24T13:19:08;101564.50;;;30.84;53.76
250;BME280;109;19.806;-70.704;2023-06-24T13:21:35;101557.91;;;30.34;54.78
250;BME280;109;19.806;-70.704;2023-06-24T13:24:01;101560.00;;;30.44;55.95
250;BME280;109;19.806;-70.704;2023-06-24T13:26:28;101569.78;;;30.18;55.07
250;BME280;109;19.806;-70.704;2023-06-24T13:28:55;101568.19;;;30.01;55.68
250;BME280;109;19.806;-70.704;2023-06-24T13:31:21;101562.31;;;30.50;56.01
250;BME280;109;19.806;-70.704;2023-06-24T13:33:48;101568.31;;;30.41;55.43
250;BME280;109;19.806;-70.704;2023-06-24T13:36:34;101567.94;;;31.00;54.64
250;BME280;109;19.806;-70.704;2023-06-24T13:39:05;101566.03;;;31.28;54.19
250;BME280;109;19.806;-70.704;2023-06-24T13:41:32;101558.28;;;31.61;53.58
250;BME280;109;19.806;-70.704;2023-06-24T13:43:59;101551.38;;;31.57;53.28
250;BME280;109;19.806;-70.704;2023-06-24T13:46:27;101552.25;;;31.96;52.97
250;BME280;109;19.806;-70.704;2023-06-24T13:48:54;101542.22;;;32.22;52.45
250;BME280;109;19.806;-70.704;2023-06-24T13:51:21;101543.38;;;31.94;52.25